createdAt,value
2018-02-23T00:00:30.493Z,22.63
2018-02-23T00:02:58.877Z,22.47
2018-02-23T00:05:27.270Z,21.40
2018-02-23T00:07:55.719Z,18.27
2018-02-23T00:10:24.139Z,23.73
2018-02-23T00:12:52.510Z,20.30
2018-02-23T00:15:20.881Z,20.67
2018-02-23T00:17:49.266Z,23.60
2018-02-23T00:20:17.664Z,25.63
2018-02-23T00:22:47.082Z,24.30
2018-02-23T00:25:16.206Z,25.60
2018-02-23T00:27:44.597Z,24.47
2018-02-23T00:30:12.991Z,20.20
2018-02-23T00:32:41.569Z,24.47
2018-02-23T00:35:10.446Z,21.27
2018-02-23T00:37:39.116Z,21.17
2018-02-23T00:40:07.482Z,23.17
2018-02-23T00:42:35.877Z,22.80
2018-02-23T00:45:04.282Z,24.57
2018-02-23T00:47:32.641Z,27.27
2018-02-23T00:50:01.034Z,22.20
2018-02-23T00:52:29.398Z,19.33
2018-02-23T00:54:57.793Z,22.43
2018-02-23T00:57:26.166Z,26.80
2018-02-23T01:02:51.533Z,24.90
2018-02-23T01:05:19.915Z,21.77
2018-02-23T01:07:48.282Z,18.53
2018-02-23T01:10:16.664Z,21.00
2018-02-23T01:12:45.035Z,21.30
2018-02-23T01:15:13.418Z,23.73
2018-02-23T01:17:41.776Z,23.70
2018-02-23T01:20:10.168Z,22.10
2018-02-23T01:22:38.557Z,21.73
2018-02-23T01:25:06.933Z,20.30
2018-02-23T01:27:35.294Z,22.63
2018-02-23T01:30:03.675Z,22.73
2018-02-23T01:32:32.050Z,19.37
2018-02-23T01:35:00.418Z,23.03
2018-02-23T01:37:28.840Z,21.30
2018-02-23T01:39:57.213Z,29.87
2018-02-23T01:42:25.577Z,25.40
2018-02-23T01:44:53.946Z,28.50
2018-02-23T01:47:22.317Z,22.27
2018-02-23T01:49:50.702Z,22.87
2018-02-23T01:52:19.073Z,22.63
2018-02-23T01:54:47.477Z,23.40
2018-02-23T01:57:15.849Z,20.60
2018-02-23T01:59:44.985Z,26.03
2018-02-23T02:02:14.162Z,24.80
2018-02-23T02:04:42.530Z,20.57
2018-02-23T02:07:10.922Z,21.73
2018-02-23T02:09:39.296Z,19.60
2018-02-23T02:12:07.665Z,24.40
2018-02-23T02:14:36.034Z,21.80
2018-02-23T02:17:04.424Z,21.93
2018-02-23T02:19:32.797Z,21.43
2018-02-23T02:22:01.174Z,22.90
2018-02-23T02:24:29.569Z,21.53
2018-02-23T02:26:57.939Z,24.37
2018-02-23T02:29:26.310Z,22.03
2018-02-23T02:31:54.706Z,23.57
2018-02-23T02:34:23.078Z,23.83
2018-02-23T02:36:51.453Z,22.30
2018-02-23T02:39:19.834Z,20.70
2018-02-23T02:41:48.197Z,25.87
2018-02-23T02:44:16.597Z,21.40
2018-02-23T02:46:44.973Z,23.03
2018-02-23T02:49:13.352Z,24.90
2018-02-23T02:51:41.761Z,20.43
2018-02-23T02:54:10.915Z,21.70
2018-02-23T02:56:39.290Z,20.33
2018-02-23T02:59:07.762Z,21.93
2018-02-23T03:01:36.135Z,22.63
2018-02-23T03:04:04.512Z,22.23
2018-02-23T03:06:32.926Z,22.33
2018-02-23T03:09:01.299Z,25.20
2018-02-23T03:11:29.680Z,23.60
2018-02-23T03:13:58.066Z,26.30
2018-02-23T03:16:26.439Z,25.83
2018-02-23T03:18:54.842Z,20.87
2018-02-23T03:21:23.986Z,26.53
2018-02-23T03:23:52.352Z,25.90
2018-02-23T03:26:20.753Z,29.23
2018-02-23T03:28:49.125Z,25.17
2018-02-23T03:31:17.508Z,23.43
2018-02-23T03:33:45.892Z,27.47
2018-02-23T03:36:14.265Z,26.13
2018-02-23T03:38:42.638Z,26.23
2018-02-23T03:41:11.083Z,24.87
2018-02-23T03:43:39.469Z,26.67
2018-02-23T03:46:07.863Z,27.83
2018-02-23T03:48:36.251Z,30.07
2018-02-23T03:51:04.644Z,21.90
2018-02-23T03:53:33.017Z,26.73
2018-02-23T03:56:01.384Z,25.70
2018-02-23T03:58:29.759Z,25.83
2018-02-23T04:00:58.150Z,25.03
2018-02-23T04:03:26.533Z,25.73
2018-02-23T04:05:54.923Z,27.70
2018-02-23T04:08:23.314Z,24.77
2018-02-23T04:10:51.684Z,30.30
2018-02-23T04:13:20.070Z,25.33
2018-02-23T04:15:48.461Z,26.83
2018-02-23T04:18:16.852Z,28.40
2018-02-23T04:20:45.998Z,29.60
2018-02-23T04:23:14.401Z,24.47
2018-02-23T04:25:42.838Z,31.97
2018-02-23T04:28:11.216Z,23.13
2018-02-23T04:30:39.613Z,25.63
2018-02-23T04:33:08.010Z,26.67
2018-02-23T04:35:36.377Z,24.17
2018-02-23T04:38:05.521Z,24.17
2018-02-23T04:40:33.982Z,27.33
2018-02-23T04:43:02.314Z,25.53
2018-02-23T04:45:30.681Z,29.17
2018-02-23T04:47:59.082Z,27.40
2018-02-23T04:50:27.457Z,28.00
2018-02-23T04:52:55.833Z,29.83
2018-02-23T04:55:24.244Z,24.13
2018-02-23T04:57:52.710Z,32.93
2018-02-23T05:00:21.089Z,29.33
2018-02-23T05:02:49.468Z,34.47
2018-02-23T05:05:17.877Z,24.47
2018-02-23T05:07:46.252Z,31.73
2018-02-23T05:10:15.422Z,26.00
2018-02-23T05:12:43.809Z,27.80
2018-02-23T05:15:12.185Z,28.83
2018-02-23T05:17:40.568Z,36.00
2018-02-23T05:20:08.966Z,37.73
2018-02-23T05:22:37.346Z,35.60
2018-02-23T05:25:05.717Z,34.00
2018-02-23T05:27:34.110Z,41.20
2018-02-23T05:30:02.502Z,37.17
2018-02-23T05:32:30.884Z,39.83
2018-02-23T05:34:59.281Z,49.67
2018-02-23T05:37:28.533Z,46.50
2018-02-23T05:39:57.050Z,45.10
2018-02-23T05:42:26.229Z,47.67
2018-02-23T05:44:54.615Z,48.00
2018-02-23T05:47:22.998Z,50.20
2018-02-23T05:49:52.164Z,51.47
2018-02-23T05:52:20.572Z,44.17
2018-02-23T05:54:48.942Z,49.20
2018-02-23T05:57:17.314Z,53.03
2018-02-23T05:59:47.450Z,55.67
2018-02-23T06:02:15.830Z,56.83
2018-02-23T06:04:44.209Z,55.80
2018-02-23T06:07:12.598Z,50.73
2018-02-23T06:09:41.736Z,56.83
2018-02-23T06:12:10.113Z,57.13
2018-02-23T06:14:38.505Z,61.60
2018-02-23T06:17:12.478Z,56.13
2018-02-23T06:19:47.232Z,53.77
2018-02-23T06:22:15.643Z,55.53
2018-02-23T06:24:44.013Z,57.93
2018-02-23T06:27:12.381Z,52.43
2018-02-23T06:29:40.766Z,58.70
2018-02-23T06:32:09.144Z,47.80
2018-02-23T06:34:37.514Z,48.93
2018-02-23T06:37:05.901Z,51.83
2018-02-23T06:39:34.269Z,65.30
2018-02-23T06:42:02.683Z,58.73
2018-02-23T06:44:31.052Z,57.47
2018-02-23T06:47:04.725Z,54.83
2018-02-23T06:49:33.093Z,58.97
2018-02-23T06:52:02.250Z,50.33
2018-02-23T06:54:30.622Z,63.80
2018-02-23T06:56:59.022Z,59.40
2018-02-23T06:59:27.458Z,60.23
2018-02-23T07:01:56.063Z,53.47
2018-02-23T07:04:24.443Z,55.60
2018-02-23T07:06:52.814Z,54.73
2018-02-23T07:09:21.213Z,49.47
2018-02-23T07:11:49.589Z,51.33
2018-02-23T07:14:17.970Z,55.10
2018-02-23T07:16:46.415Z,52.10
2018-02-23T07:19:15.556Z,55.80
2018-02-23T07:21:44.514Z,50.53
2018-02-23T07:24:13.029Z,41.77
2018-02-23T07:26:41.422Z,42.73
2018-02-23T07:29:09.791Z,43.90
2018-02-23T07:31:38.189Z,47.47
2018-02-23T07:34:06.569Z,44.03
2018-02-23T07:36:34.947Z,42.90
2018-02-23T07:39:03.334Z,40.47
2018-02-23T07:41:31.705Z,42.00
2018-02-23T07:44:00.113Z,49.60
2018-02-23T07:46:28.480Z,36.73
2018-02-23T07:48:56.847Z,41.43
2018-02-23T07:51:25.228Z,39.63
2018-02-23T07:53:53.602Z,42.70
2018-02-23T07:56:21.983Z,39.23
2018-02-23T07:58:50.386Z,39.63
2018-02-23T08:01:18.759Z,40.83
2018-02-23T08:03:47.134Z,46.27
2018-02-23T08:06:15.547Z,40.87
2018-02-23T08:08:43.921Z,42.70
2018-02-23T08:11:12.310Z,38.40
2018-02-23T08:13:40.687Z,38.40
2018-02-23T08:16:09.048Z,35.63
2018-02-23T08:18:37.435Z,32.43
2018-02-23T08:21:05.806Z,33.17
2018-02-23T08:23:34.197Z,28.17
2018-02-23T08:26:02.573Z,33.53
2018-02-23T08:28:30.934Z,32.50
2018-02-23T08:30:59.309Z,34.03
2018-02-23T08:33:27.713Z,29.50
2018-02-23T08:35:56.098Z,37.93
2018-02-23T08:38:24.477Z,32.07
2018-02-23T08:40:52.851Z,30.63
2018-02-23T08:43:21.317Z,30.60
2018-02-23T08:45:49.734Z,32.47
2018-02-23T08:48:18.112Z,30.77
2018-02-23T08:50:46.495Z,28.43
2018-02-23T08:53:14.890Z,31.03
2018-02-23T08:55:43.261Z,28.53
2018-02-23T08:58:11.660Z,30.93
2018-02-23T09:00:49.430Z,32.43
2018-02-23T09:03:17.817Z,29.50
2018-02-23T09:05:46.188Z,28.60
2018-02-23T09:08:14.585Z,30.83
2018-02-23T09:10:43.745Z,32.63
2018-02-23T09:13:12.130Z,28.63
2018-02-23T09:15:40.582Z,29.63
2018-02-23T09:18:08.982Z,31.13
2018-02-23T09:20:37.355Z,27.10
2018-02-23T09:23:05.717Z,34.47
2018-02-23T09:25:34.110Z,26.50
2018-02-23T09:28:02.472Z,28.90
2018-02-23T09:30:30.885Z,30.30
2018-02-23T09:32:59.280Z,31.40
2018-02-23T09:35:27.685Z,30.17
2018-02-23T09:37:56.913Z,31.13
2018-02-23T09:40:25.270Z,29.17
2018-02-23T09:42:54.414Z,26.07
2018-02-23T09:45:22.802Z,29.90
2018-02-23T09:47:51.185Z,29.80
2018-02-23T09:50:19.542Z,26.77
2018-02-23T09:52:47.913Z,31.53
2018-02-23T09:55:16.318Z,29.60
2018-02-23T09:57:44.688Z,28.23
2018-02-23T10:00:13.058Z,28.73
2018-02-23T10:02:41.425Z,28.80
2018-02-23T10:05:09.809Z,24.00
2018-02-23T10:07:38.192Z,25.73
2018-02-23T10:10:06.546Z,22.97
2018-02-23T10:12:35.665Z,23.20
2018-02-23T10:15:04.070Z,25.47
2018-02-23T10:17:32.433Z,27.00
2018-02-23T10:20:00.793Z,20.50
2018-02-23T10:22:29.177Z,24.60
2018-02-23T10:24:57.533Z,28.73
2018-02-23T10:27:26.674Z,22.13
2018-02-23T10:29:55.049Z,23.67
2018-02-23T10:32:23.412Z,22.00
2018-02-23T10:34:51.798Z,22.23
2018-02-23T10:37:20.167Z,19.30
2018-02-23T10:39:49.293Z,25.30
2018-02-23T10:42:17.673Z,22.10
2018-02-23T10:44:46.078Z,16.90
2018-02-23T10:47:14.481Z,24.27
2018-02-23T10:49:43.598Z,18.60
2018-02-23T10:52:12.745Z,23.40
2018-02-23T10:54:41.114Z,25.03
2018-02-23T10:57:09.594Z,22.97
2018-02-23T10:59:37.953Z,26.07
2018-02-23T11:02:06.313Z,19.77
2018-02-23T11:04:35.463Z,18.53
2018-02-23T11:07:03.837Z,15.67
2018-02-23T11:09:32.202Z,20.87
2018-02-23T11:12:00.609Z,20.80
2018-02-23T11:14:28.977Z,24.37
2018-02-23T11:16:57.341Z,23.03
2018-02-23T11:19:25.734Z,23.33
2018-02-23T11:21:54.097Z,19.10
2018-02-23T11:24:22.454Z,21.57
2018-02-23T11:26:51.598Z,19.00
2018-02-23T11:29:19.958Z,20.50
2018-02-23T11:31:48.397Z,18.87
2018-02-23T11:34:17.529Z,18.00
2018-02-23T11:36:45.882Z,15.47
2018-02-23T11:39:15.018Z,16.50
2018-02-23T11:41:43.509Z,17.03
2018-02-23T11:44:11.909Z,18.60
2018-02-23T11:46:40.274Z,16.27
2018-02-23T11:49:08.634Z,19.27
2018-02-23T11:51:37.014Z,21.17
2018-02-23T11:54:05.374Z,22.20
2018-02-23T11:56:33.751Z,26.90
2018-02-23T11:59:02.145Z,24.10
2018-02-23T12:01:30.514Z,22.63
2018-02-23T12:03:58.878Z,19.50
2018-02-23T12:06:27.249Z,22.17
2018-02-23T12:08:56.383Z,23.63
2018-02-23T12:11:24.753Z,23.87
2018-02-23T12:13:53.114Z,21.80
2018-02-23T12:16:21.502Z,28.07
2018-02-23T12:18:49.862Z,19.47
2018-02-23T12:21:19.140Z,24.47
2018-02-23T12:23:47.501Z,19.97
2018-02-23T12:26:15.869Z,18.57
2018-02-23T12:28:44.247Z,22.50
2018-02-23T12:31:12.622Z,21.80
2018-02-23T12:33:40.993Z,21.90
2018-02-23T12:36:09.349Z,24.67
2018-02-23T12:38:37.734Z,20.97
2018-02-23T12:41:06.102Z,22.67
2018-02-23T12:43:34.481Z,18.97
2018-02-23T12:46:02.880Z,22.87
2018-02-23T12:48:31.246Z,21.93
2018-02-23T12:51:00.541Z,27.07
2018-02-23T12:53:28.913Z,21.43
2018-02-23T12:55:57.315Z,24.23
2018-02-23T12:58:25.692Z,24.07
2018-02-23T13:00:54.049Z,21.47
2018-02-23T13:03:22.421Z,26.90
2018-02-23T13:08:48.540Z,27.37
2018-02-23T13:11:16.901Z,23.90
2018-02-23T13:13:45.290Z,25.20
2018-02-23T13:16:19.210Z,32.80
2018-02-23T13:18:47.574Z,26.57
2018-02-23T13:21:16.744Z,26.50
2018-02-23T13:23:45.701Z,28.97
2018-02-23T13:26:14.818Z,26.33
2018-02-23T13:28:45.023Z,29.30
2018-02-23T13:31:13.394Z,25.07
2018-02-23T13:33:41.792Z,32.17
2018-02-23T13:36:10.149Z,33.70
2018-02-23T13:38:39.298Z,35.47
2018-02-23T13:41:13.215Z,32.63
2018-02-23T13:43:41.631Z,30.03
2018-02-23T13:46:10.781Z,28.63
2018-02-23T13:48:39.184Z,28.70
2018-02-23T13:51:07.550Z,32.47
2018-02-23T13:53:41.494Z,29.70
2018-02-23T13:56:10.621Z,32.47
2018-02-23T13:58:39.018Z,29.10
2018-02-23T14:01:07.434Z,37.90
2018-02-23T14:03:35.798Z,37.23
2018-02-23T14:06:04.173Z,44.70
2018-02-23T14:08:32.585Z,33.27
2018-02-23T14:11:01.723Z,35.77
2018-02-23T14:13:30.122Z,34.87
2018-02-23T14:15:58.524Z,42.27
2018-02-23T14:18:26.925Z,36.07
2018-02-23T14:20:56.062Z,37.57
2018-02-23T14:23:24.437Z,40.03
2018-02-23T14:25:52.815Z,35.47
2018-02-23T14:28:21.201Z,41.07
2018-02-23T14:30:49.648Z,31.47
2018-02-23T14:33:18.777Z,39.83
2018-02-23T14:35:47.269Z,40.17
2018-02-23T14:38:15.634Z,40.17
2018-02-23T14:40:44.043Z,43.13
2018-02-23T14:43:12.445Z,41.30
2018-02-23T14:45:40.809Z,50.97
2018-02-23T14:51:11.571Z,38.70
2018-02-23T14:53:39.968Z,45.50
2018-02-23T14:56:09.136Z,53.40
2018-02-23T14:58:38.316Z,41.63
2018-02-23T15:01:06.718Z,46.83
2018-02-23T15:03:35.151Z,47.23
2018-02-23T15:06:03.525Z,49.30
2018-02-23T15:08:31.963Z,42.33
2018-02-23T15:11:00.381Z,48.77
2018-02-23T15:13:28.756Z,44.50
2018-02-23T15:15:57.156Z,53.60
2018-02-23T15:18:25.523Z,48.50
2018-02-23T15:20:53.912Z,44.67
2018-02-23T15:23:22.284Z,42.97
2018-02-23T15:25:50.699Z,42.83
2018-02-23T15:28:19.073Z,44.20
2018-02-23T15:31:05.442Z,40.40
2018-02-23T15:33:33.830Z,46.70
2018-02-23T15:36:02.213Z,41.83
2018-02-23T15:38:30.614Z,38.93
2018-02-23T15:40:59.006Z,34.77
2018-02-23T15:43:27.376Z,36.07
2018-02-23T15:45:55.772Z,31.70
2018-02-23T15:48:27.328Z,36.53
2018-02-23T15:54:01.413Z,34.20
2018-02-23T15:56:29.797Z,35.53
2018-02-23T15:58:58.219Z,37.20
2018-02-23T16:01:26.641Z,33.70
2018-02-23T16:03:55.102Z,34.80
2018-02-23T16:06:24.322Z,29.57
2018-02-23T16:08:52.705Z,32.10
2018-02-23T16:11:21.080Z,29.57
2018-02-23T16:13:49.478Z,31.57
2018-02-23T16:16:17.870Z,34.10
2018-02-23T16:18:46.244Z,29.70
2018-02-23T16:21:14.658Z,31.83
2018-02-23T16:23:43.790Z,35.50
2018-02-23T16:26:12.174Z,30.97
2018-02-23T16:28:40.585Z,29.30
2018-02-23T16:31:09.050Z,32.03
2018-02-23T16:33:37.427Z,28.10
2018-02-23T16:36:05.805Z,30.37
2018-02-23T16:38:34.213Z,29.27
2018-02-23T16:41:02.631Z,30.57
2018-02-23T16:43:31.063Z,32.77
2018-02-23T16:45:59.455Z,35.63
2018-02-23T16:48:28.658Z,32.07
2018-02-23T16:50:57.079Z,35.50
2018-02-23T16:53:25.489Z,29.87
2018-02-23T16:55:53.894Z,33.60
2018-02-23T16:58:23.526Z,30.40
2018-02-23T17:00:51.939Z,28.20
2018-02-23T17:03:20.331Z,30.93
2018-02-23T17:05:48.766Z,32.53
2018-02-23T17:08:17.146Z,29.27
2018-02-23T17:10:45.527Z,43.07
2018-02-23T17:13:13.923Z,30.63
2018-02-23T17:15:42.305Z,27.77
2018-02-23T17:18:10.729Z,31.17
2018-02-23T17:20:39.884Z,32.07
2018-02-23T17:23:09.049Z,28.07
2018-02-23T17:25:37.436Z,36.13
2018-02-23T17:28:05.801Z,30.10
2018-02-23T17:30:34.216Z,42.30
2018-02-23T17:33:03.426Z,31.60
2018-02-23T17:35:31.860Z,33.07
2018-02-23T17:38:00.273Z,38.87
2018-02-23T17:40:28.691Z,31.97
2018-02-23T17:42:57.967Z,35.73
2018-02-23T17:45:26.375Z,31.73
2018-02-23T17:47:55.579Z,32.13
2018-02-23T17:50:23.971Z,32.07
2018-02-23T17:52:52.353Z,29.77
2018-02-23T17:55:20.751Z,40.83
2018-02-23T17:57:49.122Z,32.20
2018-02-23T18:00:17.561Z,35.33
2018-02-23T18:02:46.742Z,36.90
2018-02-23T18:05:15.162Z,38.03
2018-02-23T18:07:43.554Z,35.50
2018-02-23T18:10:11.953Z,33.60
2018-02-23T18:12:40.394Z,42.30
2018-02-23T18:15:08.794Z,35.40
2018-02-23T18:17:37.205Z,42.20
2018-02-23T18:20:06.376Z,39.67
2018-02-23T18:22:34.759Z,33.53
2018-02-23T18:25:03.160Z,32.23
2018-02-23T18:27:31.541Z,31.33
2018-02-23T18:29:59.919Z,38.10
2018-02-23T18:32:28.351Z,33.10
2018-02-23T18:34:56.779Z,31.10
2018-02-23T18:37:25.170Z,33.10
2018-02-23T18:39:53.572Z,34.07
2018-02-23T18:42:22.773Z,33.20
2018-02-23T18:44:52.073Z,30.77
2018-02-23T18:47:20.549Z,31.47
2018-02-23T18:49:49.702Z,34.40
2018-02-23T18:52:18.148Z,29.67
2018-02-23T18:54:46.525Z,31.10
2018-02-23T18:57:14.952Z,37.83
2018-02-23T18:59:43.366Z,31.23
2018-02-23T19:02:12.530Z,35.17
2018-02-23T19:04:40.935Z,30.90
2018-02-23T19:07:10.133Z,29.60
2018-02-23T19:09:39.305Z,39.20
2018-02-23T19:12:07.712Z,32.93
2018-02-23T19:14:36.894Z,36.60
2018-02-23T19:17:05.299Z,34.10
2018-02-23T19:19:33.687Z,44.63
2018-02-23T19:22:02.120Z,45.63
2018-02-23T19:24:30.527Z,34.53
2018-02-23T19:26:59.662Z,37.10
2018-02-23T19:29:28.069Z,34.63
2018-02-23T19:31:56.469Z,42.37
2018-02-23T19:34:25.643Z,35.67
2018-02-23T19:36:54.031Z,29.10
2018-02-23T19:39:23.242Z,35.93
2018-02-23T19:41:52.394Z,33.27
2018-02-23T19:44:20.786Z,44.20
2018-02-23T19:46:49.184Z,35.70
2018-02-23T19:49:17.584Z,33.30
2018-02-23T19:51:46.835Z,33.10
2018-02-23T19:54:15.236Z,34.40
2018-02-23T19:56:43.632Z,32.17
2018-02-23T20:02:11.326Z,29.87
2018-02-23T20:04:40.493Z,31.20
2018-02-23T20:07:08.944Z,31.53
2018-02-23T20:09:37.339Z,33.07
2018-02-23T20:12:05.742Z,31.20
2018-02-23T20:14:34.164Z,38.03
2018-02-23T20:17:02.592Z,33.80
2018-02-23T20:19:31.026Z,31.50
2018-02-23T20:21:59.398Z,40.03
2018-02-23T20:24:27.788Z,37.03
2018-02-23T20:26:56.202Z,35.20
2018-02-23T20:29:24.620Z,30.10
2018-02-23T20:31:53.018Z,32.60
2018-02-23T20:34:21.428Z,31.63
2018-02-23T20:36:49.864Z,35.57
2018-02-23T20:39:18.245Z,29.57
2018-02-23T20:41:46.849Z,34.73
2018-02-23T20:44:15.237Z,34.13
2018-02-23T20:46:43.677Z,28.60
2018-02-23T20:49:12.190Z,31.03
2018-02-23T20:51:40.629Z,33.10
2018-02-23T20:54:09.813Z,33.87
2018-02-23T20:56:38.212Z,29.27
2018-02-23T20:59:07.395Z,35.20
2018-02-23T21:01:35.803Z,37.77
2018-02-23T21:04:04.322Z,37.53
2018-02-23T21:06:32.735Z,38.53
2018-02-23T21:09:01.901Z,40.10
2018-02-23T21:11:30.329Z,36.73
2018-02-23T21:13:58.714Z,34.43
2018-02-23T21:16:27.094Z,35.37
2018-02-23T21:18:55.533Z,33.70
2018-02-23T21:21:23.956Z,38.90
2018-02-23T21:23:52.385Z,37.10
2018-02-23T21:26:20.791Z,35.00
2018-02-23T21:28:50.036Z,36.80
2018-02-23T21:31:18.459Z,32.90
2018-02-23T21:33:47.663Z,33.07
2018-02-23T21:36:16.853Z,33.47
2018-02-23T21:38:45.228Z,32.10
2018-02-23T21:41:13.607Z,31.80
2018-02-23T21:43:42.136Z,32.93
2018-02-23T21:46:10.518Z,36.63
2018-02-23T21:48:38.917Z,38.57
2018-02-23T21:51:07.315Z,34.23
2018-02-23T21:53:35.717Z,33.33
2018-02-23T21:56:04.880Z,34.17
2018-02-23T21:58:33.308Z,31.13
2018-02-23T22:01:01.719Z,32.50
2018-02-23T22:03:30.098Z,35.60
2018-02-23T22:05:58.498Z,31.57
2018-02-23T22:08:26.877Z,36.23
2018-02-23T22:10:55.296Z,32.00
2018-02-23T22:13:24.519Z,35.80
2018-02-23T22:15:52.932Z,39.63
2018-02-23T22:18:21.313Z,30.90
2018-02-23T22:20:49.726Z,35.43
2018-02-23T22:23:18.878Z,36.67
2018-02-23T22:25:47.285Z,33.43
2018-02-23T22:28:16.432Z,32.13
2018-02-23T22:30:44.847Z,32.63
2018-02-23T22:33:13.270Z,32.40
2018-02-23T22:35:41.647Z,32.77
2018-02-23T22:38:10.070Z,32.53
2018-02-23T22:40:38.660Z,36.20
2018-02-23T22:43:07.041Z,33.43
2018-02-23T22:45:35.458Z,90.93
2018-02-23T22:48:04.673Z,86.87
2018-02-23T22:50:33.074Z,60.00
2018-02-23T22:53:01.467Z,46.83
2018-02-23T22:55:29.894Z,42.60
2018-02-23T22:57:58.288Z,39.50
2018-02-23T23:00:26.661Z,33.07
2018-02-23T23:02:55.082Z,39.37
2018-02-23T23:05:23.452Z,33.37
2018-02-23T23:07:51.837Z,31.60
2018-02-23T23:10:20.247Z,29.00
2018-02-23T23:12:49.425Z,30.40
2018-02-23T23:15:17.854Z,30.90
2018-02-23T23:17:46.227Z,32.20
2018-02-23T23:20:14.604Z,28.27
2018-02-23T23:22:43.788Z,31.00
2018-02-23T23:25:12.946Z,26.93
2018-02-23T23:27:41.337Z,30.87
2018-02-23T23:30:09.758Z,30.90
2018-02-23T23:32:38.189Z,32.60
2018-02-23T23:35:06.601Z,27.87
2018-02-23T23:37:35.790Z,30.10
2018-02-23T23:40:04.189Z,35.40
2018-02-23T23:42:32.594Z,25.80
2018-02-23T23:45:00.995Z,29.97
2018-02-23T23:47:29.411Z,30.50
2018-02-23T23:49:58.573Z,27.83
2018-02-23T23:52:26.961Z,26.97
2018-02-23T23:54:55.367Z,34.47
2018-02-23T23:57:24.535Z,29.97
2018-02-23T23:59:52.949Z,31.20
